Empire State — WDE4431 — position and weather

sailwx.info

Track history (hours):
 
Tides and Currents Weather Stations Pressure Air Temp Water Temp Dewpoint Dewpoint Depression Visibility Wind Speed Wind Dir Waves Ship Positions

Empire State

Owner: Crowley Petroleum Services, Jacksonville, FL. More information available from US FCC via Universal Licensing System and Coast Guard Vessel Documentation Center.

Last reported at 2018-Apr-26 14:59 UTC. Time now 2018-Apr-26 20:58 UTC.
Position N 33°33' E 135°03'.

Length 183 m; draft 10.2 m.

Type: Military. MMSI: 367353080.

Date/timePositionNaut miles runAvg speedWind from/ knotsBaromVisibWave heightAir tempDewpointWater temp
2018-Apr-26 14:59N 33°33' E 135°03'4 8.1
2018-Apr-26 14:29N 33°37' E 135°02'8 8.1
2018-Apr-26 13:29N 33°45' E 134°59'4 8.4
2018-Apr-26 13:00N 33°49' E 134°58'4 8.7
2018-Apr-26 12:30N 33°53' E 134°57'4 8.9
2018-Apr-26 12:00N 33°57' E 134°56'4 8.7
2018-Apr-26 11:30N 34°02' E 134°55'4 8.5
2018-Apr-26 11:00N 34°06' E 134°56'4 8.3
2018-Apr-26 10:30N 34°10' E 134°56'5 9.2
2018-Apr-26 10:00N 34°15' E 134°57'611.7
2018-Apr-26 09:30N 34°20' E 134°60'611.9
2018-Apr-26 09:00N 34°25' E 135°05'612.9
2018-Apr-26 08:30N 34°28' E 135°11'612.7
2018-Apr-26 08:00N 34°32' E 135°17'510.9
2018-Apr-26 07:30N 34°33' E 135°23'1 1.6
2018-Apr-26 07:00N 34°34' E 135°24'0 0.0
2018-Apr-25 01:15N 34°34' E 135°24'0 0.0
2018-Apr-25 01:00N 34°34' E 135°24'0 0.2
2018-Apr-25 00:30N 34°34' E 135°24'3 5.9
2018-Apr-25 00:00N 34°33' E 135°21'4 8.7
2018-Apr-24 23:30N 34°31' E 135°16'5 9.1
2018-Apr-24 23:00N 34°28' E 135°12'5 9.2
2018-Apr-24 22:30N 34°25' E 135°08'611.2
2018-Apr-24 22:00N 34°21' E 135°03'510.9
2018-Apr-24 21:30N 34°17' E 134°59'611.8
2018-Apr-24 21:00N 34°11' E 134°60'510.0
2018-Apr-24 20:30N 34°06' E 134°60'5 9.8
2018-Apr-24 20:00N 34°01' E 134°59'612.7
2018-Apr-24 19:30N 33°54' E 134°58'612.4
2018-Apr-24 19:00N 33°48' E 134°58'712.3
2018-Apr-24 18:28N 33°42' E 135°00'611.6
2018-Apr-24 17:59N 33°37' E 135°03'611.5
2018-Apr-24 17:30N 33°32' E 135°05'711.4
2018-Apr-24 16:53N 33°25' E 135°08'  
Track history (hours):
 
Tides and Currents Weather Stations Pressure Air Temp Water Temp Dewpoint Dewpoint Depression Visibility Wind Speed Wind Dir Waves Ship Positions

Empire State

Owner: Crowley Petroleum Services, Jacksonville, FL. More information available from US FCC via Universal Licensing System and Coast Guard Vessel Documentation Center.

Last reported at 2018-Apr-26 14:59 UTC. Time now 2018-Apr-26 20:58 UTC.
Position N 33°33' E 135°03'.

Length 183 m; draft 10.2 m.

Type: Military. MMSI: 367353080.

Date/timePositionNaut miles runAvg speedWind from/ knotsBaromVisibWave heightAir tempDewpointWater temp
2018-Apr-26 14:59N 33°33' E 135°03'4 8.1
2018-Apr-26 14:29N 33°37' E 135°02'8 8.1
2018-Apr-26 13:29N 33°45' E 134°59'4 8.4
2018-Apr-26 13:00N 33°49' E 134°58'4 8.7
2018-Apr-26 12:30N 33°53' E 134°57'4 8.9
2018-Apr-26 12:00N 33°57' E 134°56'4 8.7
2018-Apr-26 11:30N 34°02' E 134°55'4 8.5
2018-Apr-26 11:00N 34°06' E 134°56'4 8.3
2018-Apr-26 10:30N 34°10' E 134°56'5 9.2
2018-Apr-26 10:00N 34°15' E 134°57'611.7
2018-Apr-26 09:30N 34°20' E 134°60'611.9
2018-Apr-26 09:00N 34°25' E 135°05'612.9
2018-Apr-26 08:30N 34°28' E 135°11'612.7
2018-Apr-26 08:00N 34°32' E 135°17'510.9
2018-Apr-26 07:30N 34°33' E 135°23'1 1.6
2018-Apr-26 07:00N 34°34' E 135°24'0 0.0
2018-Apr-25 01:15N 34°34' E 135°24'0 0.0
2018-Apr-25 01:00N 34°34' E 135°24'0 0.2
2018-Apr-25 00:30N 34°34' E 135°24'3 5.9
2018-Apr-25 00:00N 34°33' E 135°21'4 8.7
2018-Apr-24 23:30N 34°31' E 135°16'5 9.1
2018-Apr-24 23:00N 34°28' E 135°12'5 9.2
2018-Apr-24 22:30N 34°25' E 135°08'611.2
2018-Apr-24 22:00N 34°21' E 135°03'510.9
2018-Apr-24 21:30N 34°17' E 134°59'611.8
2018-Apr-24 21:00N 34°11' E 134°60'510.0
2018-Apr-24 20:30N 34°06' E 134°60'5 9.8
2018-Apr-24 20:00N 34°01' E 134°59'612.7
2018-Apr-24 19:30N 33°54' E 134°58'612.4
2018-Apr-24 19:00N 33°48' E 134°58'712.3
2018-Apr-24 18:28N 33°42' E 135°00'611.6
2018-Apr-24 17:59N 33°37' E 135°03'611.5
2018-Apr-24 17:30N 33°32' E 135°05'711.4
2018-Apr-24 16:53N 33°25' E 135°08'  

Dump ship's entire track history